Time;durP1;ratioP1;P1;durP2;ratioP2;P2;SDS_P1;SDS_P2;PMS_P1;PMS_P2;Temp;Humidity;BMP_temperature;BMP_pressure;BME280_temperature;BME280_humidity;BME280_pressure;Samples;Min_cycle;Max_cycle;Signal;HPM_P1;HPM_P2
2022/04/24 00:00:29;;;;;;;3.20;2.60;;;;;;;4.78;81.84;97975.61;105266;1271;62867;-25
2022/04/24 00:03:00;;;;;;;4.20;3.40;;;;;;;5.17;81.84;97977.29;105318;1271;61103;-26
2022/04/24 00:05:30;;;;;;;4.10;3.00;;;;;;;5.66;79.99;97977.90;105078;1271;75361;-26
2022/04/24 00:08:03;;;;;;;5.30;3.50;;;;;;;5.65;79.15;97978.79;105379;1271;75901;-26
2022/04/24 00:10:31;;;;;;;4.40;3.10;;;;;;;5.43;79.51;97978.78;105127;1271;74782;-26
2022/04/24 00:13:03;;;;;;;5.30;4.00;;;;;;;5.16;79.80;97976.88;105060;1270;61344;-26
2022/04/24 00:15:32;;;;;;;6.50;5.10;;;;;;;4.89;80.58;97977.67;105290;1271;61045;-25
2022/04/24 00:18:11;;;;;;;4.00;2.40;;;;;;;4.70;81.54;97976.88;105156;1270;75507;-26
2022/04/24 00:20:42;;;;;;;4.10;3.00;;;;;;;5.20;81.42;97976.70;105187;1270;75947;-27
2022/04/24 00:23:11;;;;;;;5.10;3.40;;;;;;;5.73;79.53;97978.89;105054;1271;74567;-25
2022/04/24 00:25:44;;;;;;;4.70;3.70;;;;;;;5.68;78.96;97979.42;105183;1271;61970;-28
2022/04/24 00:28:21;;;;;;;6.10;4.20;;;;;;;5.38;79.52;97976.57;105336;1271;61146;-24
2022/04/24 00:30:55;;;;;;;;;;;;;;;5.08;80.01;97971.64;105261;1271;75372;-25
2022/04/24 00:33:24;;;;;;;4.50;3.40;;;;;;;4.75;80.57;97977.51;105359;1271;75889;-25
2022/04/24 00:35:54;;;;;;;2.90;2.10;;;;;;;4.51;81.37;97977.20;105154;1271;73481;-27
2022/04/24 00:38:24;;;;;;;3.80;2.60;;;;;;;4.93;81.03;97979.27;105397;1271;61881;-25
2022/04/24 00:40:54;;;;;;;5.00;3.70;;;;;;;5.40;79.21;97975.75;105186;1269;61067;-26
2022/04/24 00:43:22;;;;;;;5.60;3.80;;;;;;;5.37;78.71;97975.67;105024;1271;75829;-26
2022/04/24 00:46:55;;;;;;;5.20;3.60;;;;;;;5.04;79.12;97977.60;104476;1271;76038;-26
2022/04/24 00:49:24;;;;;;;4.90;3.90;;;;;;;4.65;80.03;97979.30;104812;1271;74380;-26
2022/04/24 00:51:57;;;;;;;5.70;4.20;;;;;;;4.34;80.78;97984.15;105208;1271;61246;-26
2022/04/24 00:54:26;;;;;;;3.20;2.20;;;;;;;4.11;81.43;97992.10;105181;1271;62126;-26
2022/04/24 00:56:55;;;;;;;5.00;3.40;;;;;;;4.47;81.35;97994.36;105234;1271;74640;-26
2022/04/24 00:59:28;;;;;;;4.60;3.20;;;;;;;4.90;80.39;97996.23;105352;1271;76158;-26
2022/04/24 01:01:57;;;;;;;4.10;3.20;;;;;;;4.98;79.95;97994.59;105244;1269;74484;-26
2022/04/24 01:04:42;;;;;;;5.60;4.00;;;;;;;4.69;80.86;97995.37;105161;1270;61172;-26
2022/04/24 01:07:13;;;;;;;4.40;3.70;;;;;;;4.48;81.63;97994.30;105298;1271;62083;-26
2022/04/24 01:09:56;;;;;;;3.60;2.90;;;;;;;4.33;81.77;97998.43;104930;1271;75555;-26
2022/04/24 01:12:26;;;;;;;4.10;3.20;;;;;;;4.70;81.26;98000.38;105005;1271;74824;-26
2022/04/24 01:14:55;;;;;;;6.10;3.80;;;;;;;5.05;79.77;97994.23;105183;1271;73460;-26
2022/04/24 01:17:24;;;;;;;5.70;3.90;;;;;;;5.02;79.60;97999.05;105171;1271;61153;-26
2022/04/24 01:19:56;;;;;;;10.50;4.20;;;;;;;4.88;79.82;97997.40;105176;1271;61050;-25
2022/04/24 01:22:25;;;;;;;5.70;4.50;;;;;;;4.56;80.69;97992.98;105214;1271;75447;-25
2022/04/24 01:24:54;;;;;;;5.90;4.00;;;;;;;4.32;81.04;98000.46;105067;1271;75797;-25
2022/04/24 01:27:22;;;;;;;4.30;3.00;;;;;;;4.11;81.53;98003.60;104990;1270;73823;-25
2022/04/24 01:29:51;;;;;;;4.20;2.90;;;;;;;4.51;81.07;98008.30;104994;1271;61147;-25
2022/04/24 01:32:20;;;;;;;5.40;3.60;;;;;;;4.93;79.50;98010.93;105276;1271;60981;-25
2022/04/24 01:34:48;;;;;;;6.40;4.10;;;;;;;4.83;79.07;98017.55;105284;1271;75259;-25
2022/04/24 01:37:17;;;;;;;5.80;3.40;;;;;;;4.49;79.94;98016.89;105330;1271;76316;-25
2022/04/24 01:39:47;;;;;;;5.40;3.80;;;;;;;4.24;80.89;98015.20;105014;1270;74586;-25
2022/04/24 01:42:16;;;;;;;5.10;4.10;;;;;;;4.01;81.25;98012.38;105333;1271;61123;-25
2022/04/24 01:44:45;;;;;;;3.20;2.20;;;;;;;3.80;81.85;98009.89;105140;1271;61873;-26
2022/04/24 01:47:16;;;;;;;4.70;3.20;;;;;;;4.23;81.80;98013.27;105384;1271;75644;-25
2022/04/24 01:49:45;;;;;;;5.40;3.10;;;;;;;4.72;79.67;98018.82;105196;1271;75660;-25
2022/04/24 01:52:13;;;;;;;4.60;3.70;;;;;;;4.68;79.47;98019.82;105463;1271;74347;-25
2022/04/24 01:54:43;;;;;;;3.80;3.20;;;;;;;4.50;79.84;98019.06;105299;1271;61819;-25
2022/04/24 01:57:12;;;;;;;4.90;3.80;;;;;;;4.16;80.89;98017.84;105247;1271;61254;-26
2022/04/24 01:59:41;;;;;;;5.50;4.10;;;;;;;3.86;81.92;98023.42;105060;1271;75586;-25
2022/04/24 02:02:12;;;;;;;6.40;3.50;;;;;;;3.67;83.41;98022.52;104961;1270;73923;-25
2022/04/24 02:04:41;;;;;;;5.90;3.80;;;;;;;4.19;82.03;98025.57;104965;1271;74348;-26
2022/04/24 02:07:11;;;;;;;4.60;3.60;;;;;;;4.42;80.53;98028.55;105109;1271;61144;-26
2022/04/24 02:09:41;;;;;;;5.60;3.90;;;;;;;4.29;80.49;98031.41;104998;1271;61141;-26
2022/04/24 02:12:10;;;;;;;5.10;4.20;;;;;;;4.05;81.08;98027.90;104860;1272;75677;-26
2022/04/24 02:14:47;;;;;;;4.90;3.10;;;;;;;3.83;81.55;98030.82;105118;1271;75860;-25
2022/04/24 02:17:20;;;;;;;4.30;2.70;;;;;;;3.61;82.11;98032.68;104965;1271;74704;-25
2022/04/24 02:19:48;;;;;;;5.90;3.70;;;;;;;4.01;81.77;98032.70;105096;1271;61137;-28
2022/04/24 02:22:20;;;;;;;5.20;3.70;;;;;;;4.46;79.87;98031.52;105089;1270;61213;-27
2022/04/24 02:24:52;;;;;;;6.00;3.90;;;;;;;4.47;79.49;98033.67;105142;1271;75323;-24
2022/04/24 02:27:21;;;;;;;5.50;4.00;;;;;;;4.27;79.58;98029.81;105011;1271;75188;-28
2022/04/24 02:29:54;;;;;;;5.60;4.40;;;;;;;3.97;79.99;98029.48;105040;1270;74391;-25
2022/04/24 02:32:25;;;;;;;7.10;4.90;;;;;;;3.69;80.74;98030.11;105292;1271;61037;-28
2022/04/24 02:34:55;;;;;;;5.90;3.00;;;;;;;3.47;81.62;98029.52;105404;1271;62162;-28
2022/04/24 02:37:26;;;;;;;6.20;3.80;;;;;;;3.92;81.34;98032.80;104932;1271;75687;-26
2022/04/24 02:39:54;;;;;;;5.00;3.90;;;;;;;4.44;79.73;98035.31;105056;1271;75830;-28
2022/04/24 02:42:23;;;;;;;5.00;3.70;;;;;;;4.44;79.17;98037.86;105397;1271;73026;-28
2022/04/24 02:44:52;;;;;;;7.70;4.50;;;;;;;4.16;79.69;98034.69;105311;1271;61144;-29
2022/04/24 02:47:20;;;;;;;6.50;4.90;;;;;;;3.83;81.02;98035.48;105235;1270;62112;-26
2022/04/24 02:49:51;;;;;;;6.10;4.50;;;;;;;3.58;82.15;98038.91;105322;1270;75253;-26
2022/04/24 02:52:24;;;;;;;4.70;2.90;;;;;;;3.38;82.93;98041.09;105245;1270;75069;-26
2022/04/24 02:54:53;;;;;;;6.20;3.50;;;;;;;3.81;82.36;98043.64;104972;1271;74280;-26
2022/04/24 02:57:30;;;;;;;6.80;4.40;;;;;;;4.38;80.16;98050.35;104968;1271;62082;-25
2022/04/24 03:00:00;;;;;;;5.80;4.10;;;;;;;4.34;79.45;98050.60;105089;1271;61070;-25
2022/04/24 03:02:31;;;;;;;4.90;3.80;;;;;;;4.09;79.91;98053.57;105181;1271;75311;-26
2022/04/24 03:05:01;;;;;;;6.00;4.40;;;;;;;3.84;80.39;98055.66;105152;1271;76117;-25
2022/04/24 03:07:41;;;;;;;4.40;3.10;;;;;;;3.56;80.26;98058.61;104409;1270;671425;-27
2022/04/24 03:10:11;;;;;;;4.30;3.00;;;;;;;3.30;80.62;98061.37;105010;1271;61893;-26
2022/04/24 03:12:57;;;;;;;4.90;3.30;;;;;;;3.71;80.43;98063.63;105100;1271;61069;-25
2022/04/24 03:15:37;;;;;;;6.40;3.80;;;;;;;3.88;79.91;98064.65;105071;1271;75555;-25
2022/04/24 03:18:09;;;;;;;5.90;4.00;;;;;;;3.77;80.31;98065.41;104910;1271;75930;-25
2022/04/24 03:20:38;;;;;;;4.30;3.60;;;;;;;3.57;81.03;98063.15;105084;1269;74654;-25
2022/04/24 03:23:07;;;;;;;4.10;3.10;;;;;;;3.40;82.15;98065.50;105251;1271;61006;-25
2022/04/24 03:25:36;;;;;;;5.60;3.90;;;;;;;3.89;81.62;98062.86;105165;1271;61154;-25
2022/04/24 03:28:08;;;;;;;5.50;4.00;;;;;;;4.39;79.34;98069.52;105358;1270;74420;-25
2022/04/24 03:30:38;;;;;;;6.20;4.40;;;;;;;4.53;79.00;98072.27;104927;1271;76388;-26
2022/04/24 03:33:07;;;;;;;5.20;4.40;;;;;;;4.45;78.89;98076.64;104933;1271;74187;-26
2022/04/24 03:35:38;;;;;;;6.00;4.90;;;;;;;4.37;79.21;98074.45;104940;1271;61124;-25
2022/04/24 03:38:07;;;;;;;5.70;4.00;;;;;;;4.25;79.43;98079.92;105230;1269;61099;-26
2022/04/24 03:40:37;;;;;;;5.30;3.30;;;;;;;4.72;78.71;98082.98;105139;1271;75551;-25
2022/04/24 03:43:09;;;;;;;6.20;4.60;;;;;;;5.07;77.05;98085.23;105270;1271;75778;-26
2022/04/24 03:45:37;;;;;;;6.30;4.40;;;;;;;5.17;76.57;98088.46;105089;1271;74452;-26
2022/04/24 03:48:07;;;;;;;6.60;4.70;;;;;;;4.98;76.06;98089.52;105161;1269;61131;-25
2022/04/24 03:50:37;;;;;;;7.60;4.30;;;;;;;4.65;76.96;98090.02;105113;1271;62011;-25
2022/04/24 03:53:06;;;;;;;6.30;4.10;;;;;;;4.67;78.24;98090.54;105421;1271;74485;-25
2022/04/24 03:55:34;;;;;;;6.90;4.60;;;;;;;5.23;76.62;98091.63;105149;1271;75949;-27
2022/04/24 03:58:06;;;;;;;6.00;5.00;;;;;;;5.41;75.88;98093.02;105186;1271;74118;-26
2022/04/24 04:00:36;;;;;;;8.70;6.30;;;;;;;5.09;76.29;98091.64;105036;1271;61026;-26
2022/04/24 04:03:10;;;;;;;8.40;5.40;;;;;;;4.88;77.78;98092.61;105351;1271;61951;-26
2022/04/24 04:05:41;;;;;;;7.50;4.00;;;;;;;4.75;78.14;98088.75;105164;1270;74549;-26
2022/04/24 04:08:10;;;;;;;7.40;4.80;;;;;;;5.07;78.04;98092.13;105109;1270;75835;-26
2022/04/24 04:10:42;;;;;;;7.90;5.70;;;;;;;5.42;76.27;98090.42;104944;1271;74459;-26
2022/04/24 04:13:14;;;;;;;6.30;5.20;;;;;;;5.59;76.09;98097.04;105067;1271;61181;-26
2022/04/24 04:15:43;;;;;;;7.20;5.30;;;;;;;5.46;76.27;98096.48;105010;1271;61117;-26
2022/04/24 04:18:12;;;;;;;8.30;5.20;;;;;;;5.29;77.06;98099.09;104924;1271;75302;-28
2022/04/24 04:20:45;;;;;;;5.20;4.10;;;;;;;5.45;76.96;98096.52;105024;1271;75861;-27
2022/04/24 04:23:14;;;;;;;9.60;5.90;;;;;;;5.74;75.30;98091.58;105389;1270;73464;-26
2022/04/24 04:25:57;;;;;;;5.90;4.50;;;;;;;5.82;75.21;98095.80;105165;1271;61892;-26
2022/04/24 04:28:25;;;;;;;7.70;6.20;;;;;;;5.65;75.82;98097.08;105406;1269;61799;-26
2022/04/24 04:30:55;;;;;;;8.50;5.60;;;;;;;5.74;76.41;98098.84;105413;1271;75545;-26
2022/04/24 04:33:24;;;;;;;6.90;4.90;;;;;;;5.54;76.93;98097.27;105347;1270;76021;-26
2022/04/24 04:35:53;;;;;;;7.00;5.00;;;;;;;5.98;77.02;98099.45;105412;1271;74228;-26
2022/04/24 04:38:22;;;;;;;8.30;6.10;;;;;;;6.71;75.19;98095.94;105430;1270;61171;-26
2022/04/24 04:40:50;;;;;;;8.50;5.80;;;;;;;7.06;74.08;98100.74;105092;1271;61859;-27
2022/04/24 04:43:19;;;;;;;8.20;6.00;;;;;;;7.00;73.88;98105.91;104901;1271;75922;-27
2022/04/24 04:45:49;;;;;;;8.50;6.10;;;;;;;6.85;73.97;98112.25;105019;1271;76075;-27
2022/04/24 04:48:18;;;;;;;9.00;5.50;;;;;;;6.68;74.61;98108.80;104895;1271;74354;-27
2022/04/24 04:50:47;;;;;;;6.50;5.10;;;;;;;6.78;75.45;98110.59;104961;1271;62671;-27
2022/04/24 04:53:16;;;;;;;8.00;5.60;;;;;;;7.38;73.44;98117.44;104957;1271;61012;-27
2022/04/24 04:55:46;;;;;;;10.10;6.20;;;;;;;7.78;73.27;98119.29;104947;1271;75649;-27
2022/04/24 04:58:15;;;;;;;11.60;5.90;;;;;;;8.00;72.48;98116.27;105111;1271;74980;-27
2022/04/24 05:00:43;;;;;;;8.80;6.50;;;;;;;7.64;72.18;98112.55;105019;1271;74360;-27
2022/04/24 05:03:15;;;;;;;9.40;6.10;;;;;;;7.60;73.29;98115.86;105184;1271;61983;-27
2022/04/24 05:05:44;;;;;;;10.90;6.40;;;;;;;7.65;73.11;98112.52;105380;1271;61033;-27
2022/04/24 05:08:14;;;;;;;6.90;5.10;;;;;;;7.73;73.20;98111.64;105071;1271;75493;-27
2022/04/24 05:10:57;;;;;;;6.80;5.50;;;;;;;8.31;72.28;98115.86;104946;1271;75753;-27
2022/04/24 05:13:26;;;;;;;8.90;6.00;;;;;;;8.72;70.88;98116.30;105005;1271;72638;-28
2022/04/24 05:15:55;;;;;;;9.30;5.40;;;;;;;8.61;70.31;98116.27;104942;1271;62328;-27
2022/04/24 05:18:26;;;;;;;8.10;5.40;;;;;;;8.40;70.80;98118.91;104965;1271;62590;-27
2022/04/24 05:20:57;;;;;;;7.70;5.50;;;;;;;8.32;71.52;98121.86;104979;1269;75457;-27
2022/04/24 05:23:27;;;;;;;9.60;6.60;;;;;;;8.25;71.99;98122.27;104926;1271;74886;-27
2022/04/24 05:25:55;;;;;;;7.60;5.40;;;;;;;8.19;72.55;98120.02;104884;1271;74196;-27
2022/04/24 05:28:28;;;;;;;9.40;5.50;;;;;;;8.25;72.41;98118.64;104878;1271;62685;-27
2022/04/24 05:31:02;;;;;;;7.80;5.60;;;;;;;8.87;71.75;98121.11;104968;1271;61114;-27
2022/04/24 05:33:43;;;;;;;7.80;5.40;;;;;;;9.38;69.71;98126.71;104955;1271;75466;-28
2022/04/24 05:36:13;;;;;;;10.30;6.00;;;;;;;9.41;69.82;98126.84;104967;1270;76059;-27
2022/04/24 05:38:41;;;;;;;7.40;5.50;;;;;;;9.38;69.80;98125.20;105327;1271;74196;-27
2022/04/24 05:41:12;;;;;;;7.50;6.10;;;;;;;9.32;69.33;98122.36;105084;1271;62014;-27
2022/04/24 05:43:41;;;;;;;7.00;5.80;;;;;;;9.28;70.58;98125.17;105175;1271;61124;-27
2022/04/24 05:46:17;;;;;;;7.40;6.10;;;;;;;9.22;70.26;98124.40;104947;1271;75287;-27
2022/04/24 05:48:47;;;;;;;8.50;6.60;;;;;;;9.15;70.07;98122.71;105241;1271;76013;-27
2022/04/24 05:51:16;;;;;;;9.30;6.10;;;;;;;9.13;70.99;98127.77;105058;1271;74475;-27
2022/04/24 05:53:45;;;;;;;7.80;5.50;;;;;;;9.32;70.77;98129.13;104952;1270;63307;-27
2022/04/24 05:56:15;;;;;;;7.50;5.70;;;;;;;9.96;69.30;98128.71;104943;1270;61191;-27
2022/04/24 05:58:53;;;;;;;7.10;5.00;;;;;;;10.29;68.30;98128.58;104892;1271;77221;-27
2022/04/24 06:01:21;;;;;;;7.90;5.60;;;;;;;10.38;67.05;98132.27;104990;1270;74971;-27
2022/04/24 06:03:51;;;;;;;7.50;5.50;;;;;;;10.28;68.09;98132.31;104962;1271;74210;-27
2022/04/24 06:06:37;;;;;;;7.70;5.70;;;;;;;10.18;67.61;98133.24;104964;1271;61132;-27
2022/04/24 06:09:06;;;;;;;8.30;6.10;;;;;;;10.28;67.81;98133.55;104954;1271;61128;-27
2022/04/24 06:11:41;;;;;;;6.30;5.10;;;;;;;10.30;67.42;98136.67;104982;1271;74716;-27
2022/04/24 06:14:16;;;;;;;6.90;5.80;;;;;;;10.30;67.52;98136.84;104930;1271;75759;-27
2022/04/24 06:16:45;;;;;;;7.80;6.30;;;;;;;10.30;67.36;98139.11;104930;1271;73374;-27
2022/04/24 06:19:16;;;;;;;7.10;5.40;;;;;;;10.25;67.30;98139.86;104954;1271;61066;-27
2022/04/24 06:21:48;;;;;;;6.60;5.60;;;;;;;10.27;67.40;98141.62;104937;1271;62173;-27
2022/04/24 06:24:18;;;;;;;5.90;4.70;;;;;;;10.32;66.19;98142.86;105147;1271;74571;-27
2022/04/24 06:26:46;;;;;;;7.30;5.10;;;;;;;10.33;67.88;98143.09;104922;1269;75830;-26
2022/04/24 06:29:15;;;;;;;5.50;4.50;;;;;;;10.32;68.07;98141.98;104915;1271;74669;-26
2022/04/24 06:31:46;;;;;;;7.30;5.80;;;;;;;10.03;67.85;98145.74;104953;1271;61126;-26
2022/04/24 06:34:18;;;;;;;9.20;3.40;;;;;;;10.03;68.77;98148.67;104952;1271;61124;-26
2022/04/24 06:36:46;;;;;;;5.90;4.80;;;;;;;10.32;67.94;98144.23;104982;1271;75346;-26
2022/04/24 06:39:15;;;;;;;8.70;5.40;;;;;;;10.90;65.30;98145.52;104929;1271;76041;-26
2022/04/24 06:41:45;;;;;;;8.60;4.80;;;;;;;11.05;65.28;98145.64;105051;1271;74386;-26
2022/04/24 06:44:24;;;;;;;5.40;4.00;;;;;;;11.34;64.43;98151.00;105089;1270;61074;-27
2022/04/24 06:46:53;;;;;;;7.40;4.80;;;;;;;11.54;63.15;98147.99;105027;1271;61514;-28
2022/04/24 06:49:21;;;;;;;6.10;4.40;;;;;;;11.34;63.83;98147.31;104974;1271;75542;-28
2022/04/24 06:51:50;;;;;;;6.90;4.60;;;;;;;11.22;63.93;98150.48;104986;1271;76649;-28
2022/04/24 06:54:19;;;;;;;5.90;4.70;;;;;;;11.34;64.25;98152.34;104994;1270;74275;-27
2022/04/24 06:56:50;;;;;;;5.40;4.60;;;;;;;11.57;64.40;98146.64;105405;1269;60958;-26
2022/04/24 06:59:18;;;;;;;5.40;4.50;;;;;;;11.66;62.64;98144.52;105378;1271;61113;-26
2022/04/24 07:01:47;;;;;;;5.60;4.50;;;;;;;11.79;60.85;98139.22;105320;1271;75509;-26
2022/04/24 07:04:18;;;;;;;5.30;4.70;;;;;;;11.71;61.27;98141.98;105119;1271;76088;-26
2022/04/24 07:06:47;;;;;;;5.90;4.70;;;;;;;11.77;61.11;98144.32;104992;1271;74435;-26
2022/04/24 07:09:17;;;;;;;5.60;4.80;;;;;;;11.88;60.30;98141.29;104974;1271;62240;-26
2022/04/24 07:11:48;;;;;;;6.10;4.30;;;;;;;11.99;58.91;98141.38;105000;1271;61070;-26
2022/04/24 07:14:22;;;;;;;4.60;4.00;;;;;;;12.18;60.03;98145.84;105101;1271;75802;-26
2022/04/24 07:16:51;;;;;;;6.30;4.40;;;;;;;12.26;58.19;98151.24;104970;1270;76013;-26
2022/04/24 07:19:20;;;;;;;5.70;3.70;;;;;;;12.28;56.95;98150.73;105109;1271;74534;-26
2022/04/24 07:21:51;;;;;;;6.40;4.00;;;;;;;12.37;60.49;98152.59;105351;1270;62826;-25
2022/04/24 07:24:23;;;;;;;5.40;4.10;;;;;;;12.58;59.34;98148.30;105415;1271;61132;-25
2022/04/24 07:26:55;;;;;;;5.70;4.40;;;;;;;12.75;56.60;98144.98;105114;1271;77377;-25
2022/04/24 07:29:26;;;;;;;6.30;4.30;;;;;;;12.86;57.87;98147.46;105239;1271;75970;-25
2022/04/24 07:31:56;;;;;;;5.50;4.50;;;;;;;12.96;56.51;98149.95;105314;1271;74419;-25
2022/04/24 07:34:31;;;;;;;8.10;3.70;;;;;;;13.00;54.86;98146.91;105362;1270;61127;-26
2022/04/24 07:37:00;;;;;;;4.20;3.80;;;;;;;13.03;51.46;98138.89;105406;1271;61740;-26
2022/04/24 07:39:31;;;;;;;4.30;3.50;;;;;;;12.86;53.43;98142.14;105300;1271;77541;-26
2022/04/24 07:42:01;;;;;;;4.00;3.40;;;;;;;12.84;53.39;98146.09;105349;1270;76140;-26
2022/04/24 07:44:29;;;;;;;4.20;3.70;;;;;;;13.02;52.67;98148.12;105283;1271;74404;-26
2022/04/24 07:46:58;;;;;;;5.00;3.60;;;;;;;12.98;52.68;98140.88;105365;1271;61042;-25
2022/04/24 07:49:28;;;;;;;3.90;3.30;;;;;;;13.07;51.42;98142.34;105392;1271;60999;-25
2022/04/24 07:51:57;;;;;;;3.70;2.90;;;;;;;13.22;52.17;98140.41;105171;1271;74518;-25
2022/04/24 07:54:26;;;;;;;3.50;3.00;;;;;;;13.45;51.15;98148.59;104992;1271;75530;-25
2022/04/24 07:57:00;;;;;;;5.50;3.50;;;;;;;13.55;50.86;98145.83;105041;1271;74682;-25
2022/04/24 07:59:29;;;;;;;3.40;3.10;;;;;;;13.68;50.46;98147.89;104941;1271;61340;-25
2022/04/24 08:02:03;;;;;;;5.20;3.20;;;;;;;13.81;49.35;98149.98;104903;1271;61129;-25
2022/04/24 08:04:33;;;;;;;4.50;3.40;;;;;;;13.86;49.35;98151.41;104961;1271;75705;-25
2022/04/24 08:07:04;;;;;;;3.60;2.50;;;;;;;14.04;48.67;98157.80;104955;1271;76012;-25
2022/04/24 08:09:33;;;;;;;3.80;3.20;;;;;;;13.94;47.45;98153.51;105046;1271;74643;-25
2022/04/24 08:12:08;;;;;;;4.10;2.90;;;;;;;13.95;47.25;98161.16;104796;1271;61131;-26
2022/04/24 08:14:37;;;;;;;3.90;2.70;;;;;;;14.05;48.82;98158.95;105010;1270;61107;-27
2022/04/24 08:17:07;;;;;;;3.30;3.00;;;;;;;14.20;46.80;98156.52;104997;1271;75499;-25
2022/04/24 08:19:37;;;;;;;4.20;2.90;;;;;;;14.28;48.16;98168.56;104919;1271;76767;-24
2022/04/24 08:22:10;;;;;;;4.00;3.10;;;;;;;14.46;48.09;98169.08;104963;1271;74199;-24
2022/04/24 08:24:38;;;;;;;3.80;2.70;;;;;;;14.58;46.49;98165.27;105053;1271;61124;-24
2022/04/24 08:27:08;;;;;;;4.70;2.90;;;;;;;14.50;45.74;98158.91;105093;1271;61088;-24
2022/04/24 08:29:43;;;;;;;4.20;3.10;;;;;;;14.45;45.79;98159.90;105052;1271;75562;-24
2022/04/24 08:32:20;;;;;;;;;;;;;;;14.04;46.62;98170.23;105220;1271;76233;-24
2022/04/24 08:34:48;;;;;;;4.20;3.30;;;;;;;14.16;47.31;98164.36;104907;1271;74597;-25
2022/04/24 08:37:17;;;;;;;5.20;3.70;;;;;;;13.97;47.20;98167.77;104935;1271;60980;-25
2022/04/24 08:39:47;;;;;;;3.00;2.50;;;;;;;13.72;49.44;98159.48;104947;1271;61890;-25
2022/04/24 08:42:21;;;;;;;3.40;3.10;;;;;;;14.15;47.53;98164.11;104945;1271;75758;-25
2022/04/24 08:44:56;;;;;;;3.70;3.10;;;;;;;14.46;46.75;98172.61;104957;1271;76504;-25
2022/04/24 08:47:27;;;;;;;3.60;3.10;;;;;;;14.68;47.37;98169.61;105013;1271;74449;-26
2022/04/24 08:49:58;;;;;;;5.90;3.70;;;;;;;14.63;46.98;98166.70;105299;1271;61794;-26
2022/04/24 08:52:30;;;;;;;4.90;3.60;;;;;;;14.80;47.82;98171.90;105112;1271;61021;-26
2022/04/24 08:55:02;;;;;;;6.00;3.60;;;;;;;15.03;45.39;98169.30;104757;1271;75595;-26
2022/04/24 08:57:31;;;;;;;7.40;3.60;;;;;;;15.18;44.97;98167.64;105145;1271;75901;-26
2022/04/24 09:00:07;;;;;;;4.20;3.40;;;;;;;15.26;44.75;98170.73;104998;1271;74488;-26
2022/04/24 09:03:00;;;;;;;2.70;2.40;;;;;;;15.50;45.08;98171.70;104803;1271;62128;-26
2022/04/24 09:05:30;;;;;;;5.60;3.70;;;;;;;15.29;45.47;98163.74;104916;1271;62092;-26
2022/04/24 09:08:08;;;;;;;3.20;2.90;;;;;;;14.41;45.60;98167.55;104886;1271;74375;-26
2022/04/24 09:11:07;;;;;;;3.70;3.30;;;;;;;14.67;45.52;98167.83;104763;1271;75779;-25
2022/04/24 09:16:37;;;;;;;3.30;3.00;;;;;;;14.90;46.18;98172.08;104783;1271;61147;-25
2022/04/24 09:19:20;;;;;;;5.50;3.10;;;;;;;14.24;45.95;98167.59;104845;1274;61153;-25
2022/04/24 09:21:50;;;;;;;5.50;3.00;;;;;;;14.32;47.48;98171.83;104710;1271;75338;-25
2022/04/24 09:24:27;;;;;;;4.40;3.00;;;;;;;14.55;47.10;98171.15;104806;1271;75994;-25
2022/04/24 09:27:11;;;;;;;5.20;3.10;;;;;;;14.57;46.04;98163.23;104683;1271;74366;-25
2022/04/24 09:29:40;;;;;;;4.90;3.40;;;;;;;14.19;45.92;98166.60;104628;1271;62055;-25
2022/04/24 09:32:11;;;;;;;4.50;3.40;;;;;;;13.76;47.06;98172.27;104774;1271;62208;-25
2022/04/24 09:34:43;;;;;;;4.20;3.40;;;;;;;13.74;48.05;98173.98;104637;1271;75458;-25
2022/04/24 09:37:12;;;;;;;3.70;2.90;;;;;;;14.12;48.91;98173.99;104833;1271;75834;-25
2022/04/24 09:39:41;;;;;;;4.00;2.80;;;;;;;14.53;47.77;98167.60;104850;1271;74417;-25
2022/04/24 09:42:14;;;;;;;3.90;3.40;;;;;;;14.92;45.50;98164.98;104835;1271;61138;-25
2022/04/24 09:44:46;;;;;;;4.40;2.80;;;;;;;14.79;46.75;98175.20;104654;1271;61879;-25
2022/04/24 09:47:39;;;;;;;4.70;3.50;;;;;;;14.43;47.20;98167.28;104772;1271;75347;-26
2022/04/24 09:50:10;;;;;;;4.90;3.50;;;;;;;14.79;45.81;98168.73;104921;1271;76020;-26
2022/04/24 09:52:39;;;;;;;2.90;2.40;;;;;;;14.93;45.03;98169.57;104893;1270;74140;-27
2022/04/24 09:55:09;;;;;;;5.00;3.20;;;;;;;14.96;45.75;98170.34;104829;1271;61156;-27
2022/04/24 09:57:38;;;;;;;3.80;3.00;;;;;;;15.33;45.35;98170.86;104888;1271;62016;-26
2022/04/24 10:00:11;;;;;;;6.40;3.70;;;;;;;15.32;44.98;98164.67;105042;1271;75781;-25
2022/04/24 10:02:44;;;;;;;8.10;3.40;;;;;;;15.39;44.49;98152.16;105135;1269;76228;-25
2022/04/24 10:05:28;;;;;;;4.90;3.50;;;;;;;15.49;44.29;98158.50;104912;1271;73336;-25
2022/04/24 10:08:01;;;;;;;5.00;2.70;;;;;;;15.31;45.07;98166.64;104779;1271;61121;-27
2022/04/24 10:10:30;;;;;;;2.80;2.30;;;;;;;15.69;43.67;98168.66;105086;1270;61126;-26
2022/04/24 10:13:07;;;;;;;3.60;2.80;;;;;;;15.48;43.23;98161.73;105292;1271;75684;-26
2022/04/24 10:15:38;;;;;;;6.50;2.90;;;;;;;15.18;44.59;98167.61;104867;1271;75013;-27
2022/04/24 10:18:31;;;;;;;2.70;2.50;;;;;;;15.83;45.06;98173.25;104813;1271;73145;-27
2022/04/24 10:21:58;;;;;;;5.70;2.90;;;;;;;16.34;42.85;98175.23;104917;1271;61145;-28
2022/04/24 10:24:37;;;;;;;3.10;2.60;;;;;;;16.47;42.59;98174.61;104163;1280;61249;-24
2022/04/24 10:27:07;;;;;;;2.80;2.60;;;;;;;16.70;40.88;98160.08;104156;1277;75613;-24
2022/04/24 10:29:52;;;;;;;6.20;2.90;;;;;;;16.66;41.60;98169.21;104814;1269;75762;-25
2022/04/24 10:32:30;;;;;;;3.90;2.50;;;;;;;16.60;41.75;98172.54;104801;1271;74829;-27
2022/04/24 10:35:00;;;;;;;5.60;2.70;;;;;;;16.95;40.98;98163.58;104853;1271;61127;-27
2022/04/24 10:37:32;;;;;;;2.40;1.90;;;;;;;16.68;41.54;98171.67;105057;1271;61816;-27
2022/04/24 10:40:03;;;;;;;4.80;2.90;;;;;;;16.02;41.98;98172.91;104656;1271;75669;-25
2022/04/24 10:42:34;;;;;;;3.10;2.70;;;;;;;15.70;42.84;98175.14;104982;1271;75940;-25
2022/04/24 10:45:07;;;;;;;3.40;2.50;;;;;;;16.16;42.03;98171.58;104948;1271;73383;-25
2022/04/24 10:47:45;;;;;;;3.40;3.00;;;;;;;16.68;41.06;98166.80;104923;1271;61156;-25
2022/04/24 10:50:18;;;;;;;2.70;2.50;;;;;;;17.07;40.07;98169.84;104982;1271;61103;-25
2022/04/24 10:52:48;;;;;;;3.80;2.70;;;;;;;17.38;40.19;98167.35;104949;1271;75399;-25
2022/04/24 10:55:19;;;;;;;3.60;3.10;;;;;;;17.24;39.61;98164.85;105158;1271;75996;-25
2022/04/24 10:57:57;;;;;;;2.80;2.50;;;;;;;17.41;40.14;98167.41;104906;1271;73270;-25
2022/04/24 11:00:34;;;;;;;2.50;2.20;;;;;;;17.36;39.31;98166.83;104852;1271;61293;-25
2022/04/24 11:03:14;;;;;;;3.50;2.60;;;;;;;17.03;40.60;98166.77;105125;1271;61009;-26
2022/04/24 11:05:52;;;;;;;4.10;3.00;;;;;;;16.46;40.41;98168.33;105084;1271;75420;-24
2022/04/24 11:08:21;;;;;;;3.10;2.60;;;;;;;16.25;41.47;98169.25;105139;1271;76022;-25
2022/04/24 11:10:54;;;;;;;3.90;2.50;;;;;;;16.34;41.04;98161.82;104893;1271;74606;-25
2022/04/24 11:13:27;;;;;;;4.80;2.40;;;;;;;16.75;39.51;98162.50;104856;1271;61618;-25
2022/04/24 11:15:56;;;;;;;4.40;2.80;;;;;;;16.96;39.84;98158.30;104997;1271;61150;-25
2022/04/24 11:18:26;;;;;;;2.90;2.40;;;;;;;16.35;39.98;98168.95;104931;1271;75492;-25
2022/04/24 11:21:03;;;;;;;2.80;2.30;;;;;;;15.83;41.26;98172.28;104807;1271;75796;-25
2022/04/24 11:23:37;;;;;;;2.30;2.00;;;;;;;15.39;42.60;98170.28;104827;1271;74396;-26
2022/04/24 11:26:12;;;;;;;3.90;2.60;;;;;;;15.35;42.48;98169.29;104879;1272;61857;-25
2022/04/24 11:28:44;;;;;;;2.50;2.20;;;;;;;15.46;43.36;98160.48;104938;1271;61194;-25
2022/04/24 11:31:22;;;;;;;2.90;2.40;;;;;;;15.40;43.62;98163.56;104883;1271;75599;-25
2022/04/24 11:33:58;;;;;;;3.50;2.20;;;;;;;15.33;44.22;98164.54;105033;1271;76053;-25
2022/04/24 11:36:33;;;;;;;2.80;2.60;;;;;;;15.60;43.96;98163.90;105122;1271;74292;-26
2022/04/24 11:39:04;;;;;;;3.50;2.50;;;;;;;15.55;43.16;98158.04;105103;1271;61166;-25
2022/04/24 11:41:40;;;;;;;4.00;2.70;;;;;;;15.50;43.41;98153.82;104902;1271;61034;-25
2022/04/24 11:50:13;;;;;;;3.20;2.50;;;;;;;15.97;42.38;98159.45;104893;1272;74499;-25
2022/04/24 11:53:01;;;;;;;4.00;2.10;;;;;;;16.43;40.81;98160.11;104923;1271;61153;-25
2022/04/24 11:58:22;;;;;;;4.30;2.50;;;;;;;16.49;41.34;98155.81;105259;1271;75369;-25
2022/04/24 12:00:51;;;;;;;2.70;2.30;;;;;;;16.55;41.03;98153.66;104947;1271;75794;-25
2022/04/24 12:03:22;;;;;;;2.30;2.00;;;;;;;16.29;41.90;98151.84;105350;1271;73374;-25